createdAt,value
2023-03-17T00:02:14.781Z,24.68
2023-03-17T00:06:14.881Z,24.66
2023-03-17T00:10:15.016Z,24.68
2023-03-17T00:14:15.200Z,24.70
2023-03-17T00:18:15.377Z,24.63
2023-03-17T00:22:15.502Z,24.59
2023-03-17T00:26:15.672Z,24.59
2023-03-17T00:30:15.872Z,24.55
2023-03-17T00:34:16.049Z,24.57
2023-03-17T00:38:16.232Z,24.57
2023-03-17T00:42:16.349Z,24.55
2023-03-17T00:46:16.670Z,24.53
2023-03-17T00:50:16.727Z,24.52
2023-03-17T00:54:16.908Z,24.52
2023-03-17T00:58:17.100Z,24.50
2023-03-17T01:02:17.250Z,24.52
2023-03-17T01:06:17.441Z,24.49
2023-03-17T01:10:17.555Z,24.47
2023-03-17T01:14:17.728Z,24.51
2023-03-17T01:18:17.987Z,24.46
2023-03-17T01:22:18.083Z,24.45
2023-03-17T01:26:18.286Z,24.45
2023-03-17T01:30:18.461Z,24.41
2023-03-17T01:34:18.662Z,24.46
2023-03-17T01:38:18.932Z,24.40
2023-03-17T01:42:19.015Z,24.41
2023-03-17T01:46:19.406Z,24.40
2023-03-17T01:50:19.479Z,24.39
2023-03-17T01:54:19.650Z,24.33
2023-03-17T01:58:19.806Z,24.40
2023-03-17T02:02:19.987Z,24.37
2023-03-17T02:06:20.157Z,24.37
2023-03-17T02:10:20.321Z,24.39
2023-03-17T02:14:20.529Z,24.36
2023-03-17T02:18:20.691Z,24.36
2023-03-17T02:22:20.907Z,24.35
2023-03-17T02:26:21.065Z,24.35
2023-03-17T02:30:21.211Z,24.35
2023-03-17T02:34:21.309Z,24.30
2023-03-17T02:38:21.470Z,24.29
2023-03-17T02:42:21.653Z,24.25
2023-03-17T02:46:21.883Z,24.28
2023-03-17T02:50:21.968Z,24.23
2023-03-17T02:54:22.214Z,24.26
2023-03-17T02:58:22.304Z,24.28
2023-03-17T03:02:22.529Z,24.25
2023-03-17T03:06:22.666Z,24.20
2023-03-17T03:10:22.896Z,24.24
2023-03-17T03:14:23.076Z,24.26
2023-03-17T03:18:23.241Z,24.22
2023-03-17T03:22:23.439Z,24.25
2023-03-17T03:26:23.606Z,24.24
2023-03-17T03:30:23.766Z,24.17
2023-03-17T03:34:23.912Z,24.21
2023-03-17T03:38:24.083Z,24.17
2023-03-17T03:42:24.237Z,24.25
2023-03-17T03:46:24.453Z,24.22
2023-03-17T03:50:24.584Z,24.19
2023-03-17T03:54:24.741Z,24.20
2023-03-17T03:58:24.935Z,24.17
2023-03-17T04:02:25.169Z,24.20
2023-03-17T04:06:25.350Z,24.20
2023-03-17T04:10:25.496Z,24.21
2023-03-17T04:14:25.654Z,24.16
2023-03-17T04:18:25.926Z,24.07
2023-03-17T04:22:26.071Z,24.12
2023-03-17T04:26:26.292Z,24.10
2023-03-17T04:30:26.460Z,24.09
2023-03-17T04:34:26.652Z,24.05
2023-03-17T04:38:26.832Z,24.08
2023-03-17T04:42:27.021Z,24.08
2023-03-17T04:46:27.246Z,24.04
2023-03-17T04:50:27.477Z,24.13
2023-03-17T04:54:27.652Z,24.08
2023-03-17T04:58:31.066Z,24.08
2023-03-17T05:02:27.841Z,24.05
2023-03-17T05:06:27.774Z,24.08
2023-03-17T05:10:27.749Z,24.11
2023-03-17T05:14:27.682Z,24.08
2023-03-17T05:18:27.645Z,24.06
2023-03-17T05:22:27.602Z,24.06
2023-03-17T05:26:27.640Z,24.03
2023-03-17T05:30:27.706Z,24.03
2023-03-17T05:34:27.590Z,24.01
2023-03-17T05:38:27.763Z,23.97
2023-03-17T05:42:27.989Z,23.98
2023-03-17T05:46:28.266Z,23.95
2023-03-17T05:50:28.442Z,23.97
2023-03-17T05:54:28.647Z,23.90
2023-03-17T05:58:28.828Z,23.92
2023-03-17T06:02:29.075Z,23.89
2023-03-17T06:06:29.260Z,23.88
2023-03-17T06:10:29.798Z,23.81
2023-03-17T06:14:29.656Z,23.78
2023-03-17T06:18:29.841Z,23.74
2023-03-17T06:22:30.077Z,23.71
2023-03-17T06:26:30.253Z,23.67
2023-03-17T06:30:30.435Z,23.68
2023-03-17T06:34:30.568Z,23.67
2023-03-17T06:38:30.783Z,23.65
2023-03-17T06:42:30.939Z,23.66
2023-03-17T06:46:31.354Z,23.69
2023-03-17T06:50:31.303Z,23.65
2023-03-17T06:54:31.429Z,23.65
2023-03-17T06:58:31.540Z,23.63
2023-03-17T07:02:31.667Z,23.64
2023-03-17T07:06:31.810Z,23.67
2023-03-17T07:10:31.979Z,23.64
2023-03-17T07:14:31.983Z,23.55
2023-03-17T07:18:32.154Z,23.54
2023-03-17T07:22:32.235Z,23.49
2023-03-17T07:26:32.373Z,23.39
2023-03-17T07:30:32.408Z,23.27
2023-03-17T07:34:32.534Z,23.10
2023-03-17T07:38:32.593Z,22.37
2023-03-17T07:42:32.668Z,22.02
2023-03-17T07:46:32.717Z,21.90
2023-03-17T07:50:32.825Z,21.90
2023-03-17T07:54:32.715Z,22.15
2023-03-17T07:58:32.665Z,22.29
2023-03-17T08:02:32.825Z,21.99
2023-03-17T08:06:33.109Z,21.64
2023-03-17T08:10:33.498Z,21.97
2023-03-17T08:14:33.087Z,21.88
2023-03-17T08:18:33.238Z,22.11
2023-03-17T08:22:33.592Z,22.34
2023-03-17T08:26:33.432Z,22.53
2023-03-17T08:30:34.055Z,22.67
2023-03-17T08:34:33.626Z,22.84
2023-03-17T08:38:33.732Z,22.85
2023-03-17T08:42:33.690Z,22.94
2023-03-17T08:46:33.810Z,22.94
2023-03-17T08:50:34.318Z,22.93
2023-03-17T08:54:33.898Z,22.96
2023-03-17T08:58:33.993Z,21.67
2023-03-17T09:02:33.982Z,20.69
2023-03-17T09:06:33.951Z,20.30
2023-03-17T09:10:34.173Z,18.85
2023-03-17T09:14:42.847Z,19.74
2023-03-17T09:18:34.862Z,19.28
2023-03-17T09:22:33.779Z,19.40
2023-03-17T09:26:33.781Z,19.69
2023-03-17T09:30:33.851Z,20.33
2023-03-17T09:34:33.894Z,19.97
2023-03-17T09:38:34.008Z,20.62
2023-03-17T09:42:35.568Z,21.34
2023-03-17T09:46:34.114Z,21.54
2023-03-17T09:50:34.339Z,21.52
2023-03-17T09:54:34.480Z,21.50
2023-03-17T09:58:34.618Z,21.57
2023-03-17T10:02:34.680Z,21.64
2023-03-17T10:06:34.911Z,21.64
2023-03-17T10:10:34.910Z,21.70
2023-03-17T10:14:35.593Z,21.83
2023-03-17T10:18:35.184Z,21.88
2023-03-17T10:22:35.239Z,21.92
2023-03-17T10:26:35.358Z,21.95
2023-03-17T10:30:35.492Z,22.05
2023-03-17T10:34:37.904Z,22.05
2023-03-17T10:38:35.752Z,22.11
2023-03-17T10:42:35.893Z,22.12
2023-03-17T10:46:36.050Z,22.15
2023-03-17T10:50:36.320Z,22.13
2023-03-17T10:54:36.336Z,22.17
2023-03-17T10:58:36.434Z,22.19
2023-03-17T11:02:36.615Z,22.18
2023-03-17T11:06:36.754Z,22.25
2023-03-17T11:10:36.884Z,22.22
2023-03-17T11:14:37.099Z,22.24
2023-03-17T11:18:37.232Z,22.25
2023-03-17T11:22:37.337Z,22.29
2023-03-17T11:26:37.502Z,22.30
2023-03-17T11:30:37.653Z,22.39
2023-03-17T11:34:37.819Z,22.36
2023-03-17T11:38:37.979Z,22.42
2023-03-17T11:42:38.148Z,22.50
2023-03-17T11:46:38.345Z,22.50
2023-03-17T11:50:38.573Z,22.52
2023-03-17T11:54:38.747Z,22.51
2023-03-17T11:58:38.971Z,22.58
2023-03-17T12:02:39.162Z,22.57
2023-03-17T12:06:39.401Z,22.59
2023-03-17T12:10:39.590Z,22.66
2023-03-17T12:14:39.878Z,22.65
2023-03-17T12:18:40.031Z,22.66
2023-03-17T12:22:40.220Z,22.69
2023-03-17T12:26:40.457Z,22.73
2023-03-17T12:30:40.435Z,22.74
2023-03-17T12:34:40.409Z,22.80
2023-03-17T12:38:40.402Z,22.87
2023-03-17T12:42:40.367Z,22.84
2023-03-17T12:46:40.382Z,22.87
2023-03-17T12:50:40.247Z,22.90
2023-03-17T12:54:40.244Z,22.94
2023-03-17T12:58:40.212Z,22.89
2023-03-17T13:02:40.650Z,22.93
2023-03-17T13:06:40.224Z,22.95
2023-03-17T13:10:40.361Z,22.99
2023-03-17T13:14:40.498Z,23.00
2023-03-17T13:18:40.547Z,22.99
2023-03-17T13:22:40.626Z,23.01
2023-03-17T13:26:40.720Z,22.98
2023-03-17T13:30:40.803Z,23.03
2023-03-17T13:34:40.804Z,22.98
2023-03-17T13:38:40.838Z,23.10
2023-03-17T13:42:40.836Z,23.16
2023-03-17T13:46:40.910Z,23.09
2023-03-17T13:50:40.812Z,23.16
2023-03-17T13:54:40.763Z,23.20
2023-03-17T13:58:40.811Z,23.19
2023-03-17T14:02:48.192Z,23.25
2023-03-17T14:06:40.799Z,23.25
2023-03-17T14:10:40.763Z,23.24
2023-03-17T14:14:40.714Z,23.28
2023-03-17T14:18:40.707Z,23.26
2023-03-17T14:22:42.027Z,23.36
2023-03-17T14:26:40.579Z,23.33
2023-03-17T14:30:40.589Z,23.40
2023-03-17T14:34:40.516Z,23.40
2023-03-17T14:38:40.515Z,23.41
2023-03-17T14:42:40.470Z,23.45
2023-03-17T14:46:40.430Z,23.38
2023-03-17T14:50:40.391Z,23.38
2023-03-17T14:54:40.349Z,23.41
2023-03-17T14:58:40.337Z,23.42
2023-03-17T15:02:40.369Z,23.34
2023-03-17T15:06:40.305Z,23.35
2023-03-17T15:10:40.181Z,23.36
2023-03-17T15:14:40.178Z,23.32
2023-03-17T15:18:40.150Z,23.35
2023-03-17T15:22:40.140Z,23.33
2023-03-17T15:26:40.058Z,23.36
2023-03-17T15:30:47.174Z,23.33
2023-03-17T15:34:41.116Z,23.36
2023-03-17T15:38:39.970Z,23.37
2023-03-17T15:42:39.940Z,23.33
2023-03-17T15:46:39.909Z,23.32
2023-03-17T15:50:39.885Z,23.37
2023-03-17T15:54:39.952Z,23.41
2023-03-17T15:58:40.070Z,23.38
2023-03-17T16:02:40.211Z,23.44
2023-03-17T16:06:40.337Z,23.42
2023-03-17T16:10:40.467Z,23.42
2023-03-17T16:14:40.650Z,23.50
2023-03-17T16:18:40.788Z,23.47
2023-03-17T16:22:40.901Z,23.47
2023-03-17T16:26:41.035Z,23.43
2023-03-17T16:30:41.172Z,23.44
2023-03-17T16:34:41.375Z,23.48
2023-03-17T16:38:41.447Z,23.44
2023-03-17T16:42:41.584Z,23.44
2023-03-17T16:46:41.848Z,23.44
2023-03-17T16:50:41.918Z,23.48
2023-03-17T16:54:42.054Z,23.48
2023-03-17T16:58:42.254Z,23.44
2023-03-17T17:02:42.481Z,23.44
2023-03-17T17:06:42.610Z,23.46
2023-03-17T17:10:42.778Z,23.43
2023-03-17T17:14:42.936Z,23.41
2023-03-17T17:18:43.156Z,23.46
2023-03-17T17:22:43.275Z,23.43
2023-03-17T17:26:43.433Z,23.43
2023-03-17T17:30:43.613Z,23.43
2023-03-17T17:34:43.762Z,23.39
2023-03-17T17:38:43.933Z,23.39
2023-03-17T17:42:44.120Z,23.45
2023-03-17T17:46:44.310Z,23.43
2023-03-17T17:50:44.511Z,23.41
2023-03-17T17:54:44.634Z,23.41
2023-03-17T17:58:44.854Z,23.46
2023-03-17T18:02:44.980Z,23.42
2023-03-17T18:06:45.182Z,23.39
2023-03-17T18:10:45.347Z,23.40
2023-03-17T18:14:45.501Z,23.38
2023-03-17T18:18:45.721Z,23.38
2023-03-17T18:22:45.875Z,23.43
2023-03-17T18:26:46.069Z,23.40
2023-03-17T18:30:46.272Z,23.46
2023-03-17T18:34:46.484Z,23.42
2023-03-17T18:38:46.582Z,23.39
2023-03-17T18:42:46.765Z,23.41
2023-03-17T18:46:46.966Z,23.41
2023-03-17T18:50:47.158Z,23.42
2023-03-17T18:54:47.384Z,23.40
2023-03-17T18:58:47.530Z,23.42
2023-03-17T19:02:47.776Z,23.40
2023-03-17T19:06:47.878Z,23.39
2023-03-17T19:10:48.078Z,23.41
2023-03-17T19:14:48.349Z,23.39
2023-03-17T19:18:48.483Z,23.44
2023-03-17T19:22:48.693Z,23.40
2023-03-17T19:26:48.941Z,23.44
2023-03-17T19:30:49.116Z,23.47
2023-03-17T19:34:49.313Z,23.47
2023-03-17T19:38:49.433Z,23.46
2023-03-17T19:42:49.651Z,23.44
2023-03-17T19:46:49.885Z,23.40
2023-03-17T19:50:50.074Z,23.41
2023-03-17T19:54:50.257Z,23.44
2023-03-17T19:58:50.417Z,23.41
2023-03-17T20:02:50.650Z,23.40
2023-03-17T20:06:50.842Z,23.44
2023-03-17T20:10:51.088Z,23.41
2023-03-17T20:14:51.250Z,23.43
2023-03-17T20:18:51.431Z,23.40
2023-03-17T20:22:51.671Z,23.41
2023-03-17T20:26:51.924Z,23.37
2023-03-17T20:30:52.121Z,23.46
2023-03-17T20:34:52.288Z,23.40
2023-03-17T20:38:52.466Z,23.39
2023-03-17T20:42:52.673Z,23.38
2023-03-17T20:46:52.930Z,23.40
2023-03-17T20:50:53.102Z,23.39
2023-03-17T20:54:53.305Z,23.40
2023-03-17T20:58:53.498Z,23.40
2023-03-17T21:02:53.751Z,23.36
2023-03-17T21:06:53.839Z,23.37
2023-03-17T21:10:54.109Z,23.39
2023-03-17T21:14:54.293Z,23.35
2023-03-17T21:18:54.471Z,23.30
2023-03-17T21:22:54.650Z,23.33
2023-03-17T21:26:54.900Z,23.36
2023-03-17T21:30:55.137Z,23.36
2023-03-17T21:34:55.265Z,23.35
2023-03-17T21:38:55.488Z,23.30
2023-03-17T21:42:55.864Z,23.32
2023-03-17T21:46:55.959Z,23.36
2023-03-17T21:50:56.107Z,23.32
2023-03-17T21:54:56.318Z,23.35
2023-03-17T21:58:56.532Z,23.37
2023-03-17T22:02:56.788Z,23.39
2023-03-17T22:06:56.980Z,23.39
2023-03-17T22:10:57.202Z,23.38
2023-03-17T22:14:57.411Z,23.42
2023-03-17T22:18:57.622Z,23.38
2023-03-17T22:22:57.843Z,23.40
2023-03-17T22:26:58.064Z,23.44
2023-03-17T22:30:58.277Z,23.41
2023-03-17T22:34:58.241Z,23.41
2023-03-17T22:38:58.327Z,23.39
2023-03-17T22:42:58.152Z,23.40
2023-03-17T22:46:58.123Z,23.41
2023-03-17T22:50:58.065Z,23.37
2023-03-17T22:54:58.072Z,23.39
2023-03-17T22:58:58.034Z,23.39
2023-03-17T23:02:58.030Z,23.36
2023-03-17T23:06:57.942Z,23.39
2023-03-17T23:10:57.912Z,23.28
2023-03-17T23:14:58.134Z,23.39
2023-03-17T23:18:58.065Z,23.35
2023-03-17T23:22:58.066Z,23.43
2023-03-17T23:26:57.994Z,23.33
2023-03-17T23:30:57.989Z,23.39
2023-03-17T23:34:57.938Z,23.41
2023-03-17T23:38:57.850Z,23.40
2023-03-17T23:42:57.806Z,23.39
2023-03-17T23:46:57.762Z,23.41
2023-03-17T23:50:57.767Z,23.40
2023-03-17T23:54:57.748Z,23.41
2023-03-17T23:58:57.773Z,23.41
